Latest Coastal Weather Observations for Rosslyn Bay Harbour

IDQ60701

Issued at 12:22 pm EST Monday 25 July 2016 (issued every 10 minutes, with the page automatically refreshed every 10 minutes)

About coastal observations | Map of coastal stations | Coastal observations for QLD | Marine services | Other Formats
Station Details ID: 033208 Name: ROSSLYN BAY NTC AWS Lat: -23.16 Lon: 150.79 Height: 0.0 m
Data from the previous 72 hours. | See also: Recent months for locations in Queensland
Date/Time
EST
Temp
°C
Wind Pressure Rain since
9am
mm
Weather Cloud Vis
km
Sea
Height
m
Swell
Dir  Spd
kts
Gust
kts
hPa Trend Height
m
Period
s
Dir
25/12:00pm 21.1 S 6 11 1017.2 - - - - - - - - -
25/11:30am 21.7 S 6 10 1017.7 - - - - - - - - -
25/11:00am 21.5 S 5 9 1017.9 - - - - - - - - -
25/10:30am 21.0 S 6 11 1018.3 - - - - - - - - -
25/10:00am 21.4 S 6 12 1018.3 - - - - - - - - -
25/09:30am 21.1 SSW 8 13 1018.4 - - - - - - - - -
25/09:00am 20.6 SSW 5 12 1018.2 - - - - - - - - -
25/08:30am 19.9 SSW 6 10 1017.9 - - - - - - - - -
25/08:00am 19.3 SW 6 8 1017.5 - - - - - - - - -
25/07:30am 19.2 W 5 8 1017.1 - - - - - - - - -
25/07:00am 19.4 SW 2 5 1016.8 - - - - - - - - -
25/06:30am 19.7 W 5 7 1016.3 - - - - - - - - -
25/06:00am 19.6 W 2 3 1015.9 - - - - - - - - -
25/05:30am 19.6 W 3 7 1015.6 - - - - - - - - -
25/05:00am 19.7 NNW 4 6 1015.3 - - - - - - - - -
25/04:30am 18.8 NW 2 3 1015.1 - - - - - - - - -
25/04:00am 18.6 WNW 4 6 1014.9 - - - - - - - - -
25/03:30am 19.3 WNW 3 5 1014.8 - - - - - - - - -
25/03:00am 19.8 W 1 3 1014.8 - - - - - - - - -
25/02:30am 19.9 SSW 1 2 1014.8 - - - - - - - - -
25/02:00am 19.8 SW 1 3 1014.8 - - - - - - - - -
25/01:30am 20.2 NNW 3 4 1014.8 - - - - - - - - -
25/01:00am 19.9 W 1 2 1015.0 - - - - - - - - -
25/12:30am 20.2 WNW 1 2 1015.4 - - - - - - - - -
25/12:00am 20.6 NW 3 4 1015.3 - - - - - - - - -
 
Date/Time
EST
Temp
°C
Wind Pressure Rain since
9am
mm
Weather Cloud Vis
km
Sea
Height
m
Swell
Dir  Spd
kts
Gust
kts
hPa Trend Height
m
Period
s
Dir
24/11:30pm 20.5 NW 2 3 1015.5 - - - - - - - - -
24/11:00pm 20.5 CALM 0 1 1015.6 - - - - - - - - -
24/10:30pm 21.0 S 2 3 1015.7 - - - - - - - - -
24/10:00pm 20.5 S 3 4 1015.8 - - - - - - - - -
24/09:30pm 20.9 S 4 4 1015.6 - - - - - - - - -
24/09:00pm 21.0 S 2 3 1015.3 - - - - - - - - -
24/08:30pm 21.6 CALM 0 1 1015.1 - - - - - - - - -
24/08:00pm 21.7 NE 2 3 1014.9 - - - - - - - - -
24/07:30pm 21.7 ENE 2 3 1014.7 - - - - - - - - -
24/07:00pm 21.7 NE 3 4 1014.5 - - - - - - - - -
24/06:30pm 21.6 NE 3 5 1014.1 - - - - - - - - -
24/06:00pm 21.7 NE 3 5 1013.9 - - - - - - - - -
24/05:30pm 21.9 NE 3 5 1013.6 - - - - - - - - -
24/05:00pm 22.0 ENE 4 7 1013.4 - - - - - - - - -
24/04:30pm 22.3 ENE 5 8 1013.3 - - - - - - - - -
24/04:00pm 22.5 ENE 4 8 1013.1 - - - - - - - - -
24/03:30pm 22.4 ENE 5 8 1012.9 - - - - - - - - -
24/03:00pm 22.3 ENE 6 9 1013.1 - - - - - - - - -
24/02:30pm 22.7 ENE 3 8 1013.2 - - - - - - - - -
24/02:00pm 22.7 WSW 1 4 1013.5 - - - - - - - - -
24/01:30pm 21.9 S 5 7 1013.9 - - - - - - - - -
24/01:00pm 22.1 S 7 10 1014.2 - - - - - - - - -
24/12:30pm 21.5 S 8 10 1014.6 - - - - - - - - -
24/12:00pm 21.8 S 5 8 1015.2 - - - - - - - - -
24/11:30am 21.7 ENE 5 7 1015.7 - - - - - - - - -
24/11:00am 21.4 ENE 5 5 1016.2 - - - - - - - - -
24/10:30am 21.3 NE 3 4 1016.3 - - - - - - - - -
24/10:00am 21.0 NE 3 5 1016.5 - - - - - - - - -
24/09:30am 21.8 N 3 4 1016.4 - - - - - - - - -
24/09:00am 20.8 NW 3 4 1016.2 - - - - - - - - -
24/08:30am 20.9 W 3 5 1015.9 - - - - - - - - -
24/08:00am 20.2 NNW 3 5 1015.7 - - - - - - - - -
24/07:30am 20.4 WNW 3 4 1015.3 - - - - - - - - -
24/07:00am 20.1 W 2 3 1014.8 - - - - - - - - -
24/06:30am 20.1 W 4 7 1014.6 - - - - - - - - -
24/06:00am 20.1 W 3 5 1014.3 - - - - - - - - -
24/05:30am 19.6 W 3 5 1014.0 - - - - - - - - -
24/05:00am 19.6 W 3 5 1013.5 - - - - - - - - -
24/04:30am 19.6 WNW 4 5 1013.2 - - - - - - - - -
24/04:00am 19.7 NW 3 4 1013.0 - - - - - - - - -
24/03:30am 20.0 WNW 3 5 1012.9 - - - - - - - - -
24/03:00am 19.9 W 2 5 1013.0 - - - - - - - - -
24/02:30am 20.0 WNW 3 6 1012.7 - - - - - - - - -
24/02:00am 20.3 W 3 7 1012.8 - - - - - - - - -
24/01:30am 20.4 WNW 4 6 1013.0 - - - - - - - - -
24/01:00am 20.3 WNW 4 6 1013.4 - - - - - - - - -
24/12:30am 20.4 W 3 6 1013.3 - - - - - - - - -
24/12:00am 20.6 WNW 5 7 1013.2 - - - - - - - - -
 
Date/Time
EST
Temp
°C
Wind Pressure Rain since
9am
mm
Weather Cloud Vis
km
Sea
Height
m
Swell
Dir  Spd
kts
Gust
kts
hPa Trend Height
m
Period
s
Dir
23/11:30pm 21.1 WNW 2 4 1013.5 - - - - - - - - -
23/11:00pm 21.3 WNW 4 6 1013.6 - - - - - - - - -
23/10:30pm 21.4 NW 3 5 1013.6 - - - - - - - - -
23/10:00pm 21.3 W 2 3 1013.6 - - - - - - - - -
23/09:30pm 21.6 W 2 5 1013.3 - - - - - - - - -
23/09:00pm 21.5 NNW 4 5 1013.3 - - - - - - - - -
23/08:30pm 21.6 N 4 6 1013.0 - - - - - - - - -
23/08:00pm 21.8 N 4 6 1012.7 - - - - - - - - -
23/07:30pm 22.0 N 4 7 1012.4 - - - - - - - - -
23/07:00pm 22.4 N 3 6 1012.1 - - - - - - - - -
23/06:30pm 22.6 N 4 6 1011.9 - - - - - - - - -
23/06:00pm 22.8 NNE 4 6 1011.7 - - - - - - - - -
23/05:30pm 23.4 N 5 8 1011.5 - - - - - - - - -
23/05:00pm 23.8 NE 3 7 1011.5 - - - - - - - - -
23/04:30pm 23.0 NE 4 5 1011.5 - - - - - - - - -
23/04:00pm 23.4 NNE 4 6 1011.4 - - - - - - - - -
23/03:30pm 23.0 NE 5 8 1011.5 - - - - - - - - -
23/03:00pm 23.0 NE 5 7 1011.7 - - - - - - - - -
23/02:30pm 23.0 NE 4 6 1011.8 - - - - - - - - -
23/02:00pm 22.7 NE 5 9 1012.1 - - - - - - - - -
23/01:30pm 21.9 NE 7 9 1012.3 - - - - - - - - -
23/01:00pm 21.5 NE 6 9 1012.7 - - - - - - - - -
23/12:30pm 21.6 NE 5 7 1013.2 - - - - - - - - -
23/12:00pm 20.7 NE 5 7 1013.6 - - - - - - - - -
23/11:30am 20.4 NE 5 6 1014.2 - - - - - - - - -
23/11:00am 20.3 NE 4 6 1014.4 - - - - - - - - -
23/10:30am 20.2 NNE 4 6 1014.9 - - - - - - - - -
23/10:00am 19.9 NNE 3 5 1015.4 - - - - - - - - -
23/09:30am 19.9 NW 4 6 1015.5 - - - - - - - - -
23/09:00am 19.3 NW 5 7 1015.5 - - - - - - - - -
23/08:30am 18.4 NW 5 8 1015.6 - - - - - - - - -
23/08:00am 18.1 WNW 3 7 1015.4 - - - - - - - - -
23/07:30am 17.6 W 3 5 1015.1 - - - - - - - - -
23/07:00am 17.3 WSW 4 6 1014.8 - - - - - - - - -
23/06:30am 17.8 WSW 3 5 1014.6 - - - - - - - - -
23/06:00am 18.3 WSW 1 2 1014.3 - - - - - - - - -
23/05:30am 18.3 NW 2 3 1013.7 - - - - - - - - -
23/05:00am 18.2 WSW 1 3 1013.5 - - - - - - - - -
23/04:30am 18.6 W 3 4 1013.4 - - - - - - - - -
23/04:00am 18.6 W 1 2 1013.3 - - - - - - - - -
23/03:30am 18.6 W 1 3 1013.3 - - - - - - - - -
23/03:00am 18.8 WSW 1 3 1013.4 - - - - - - - - -
23/02:30am 18.8 W 2 3 1013.5 - - - - - - - - -
23/02:00am 18.8 WSW 2 3 1013.6 - - - - - - - - -
23/01:30am 19.0 W 2 3 1013.7 - - - - - - - - -
23/01:00am 19.1 WSW 1 2 1014.0 - - - - - - - - -
23/12:30am 19.1 SW 2 3 1014.3 - - - - - - - - -
23/12:00am 19.6 WNW 2 3 1014.4 - - - - - - - - -
 
Date/Time
EST
Temp
°C
Wind Pressure Rain since
9am
mm
Weather Cloud Vis
km
Sea
Height
m
Swell
Dir  Spd
kts
Gust
kts
hPa Trend Height
m
Period
s
Dir
22/11:30pm 19.7 WSW 1 2 1014.5 - - - - - - - - -
22/11:00pm 19.9 WNW 2 5 1014.5 - - - - - - - - -
22/10:30pm 20.4 N 4 5 1014.7 - - - - - - - - -
22/10:00pm 20.3 N 4 5 1014.9 - - - - - - - - -
22/09:30pm 20.4 NNW 4 6 1014.9 - - - - - - - - -
22/09:00pm 20.9 N 6 9 1014.9 - - - - - - - - -
22/08:30pm 21.2 N 6 8 1014.7 - - - - - - - - -
22/08:00pm 21.4 NNE 8 11 1014.8 - - - - - - - - -
22/07:30pm 21.4 NNE 8 12 1014.7 - - - - - - - - -
22/07:00pm 21.5 NNE 7 10 1014.6 - - - - - - - - -
22/06:30pm 21.6 NE 6 9 1014.5 - - - - - - - - -
22/06:00pm 21.6 NNE 6 9 1014.3 - - - - - - - - -
22/05:30pm 21.6 NNE 6 10 1014.0 - - - - - - - - -
22/05:00pm 21.8 NNE 6 10 1013.9 - - - - - - - - -
22/04:30pm 21.9 NNE 6 10 1013.7 - - - - - - - - -
22/04:00pm 22.0 NNE 7 10 1013.7 - - - - - - - - -
22/03:30pm 22.0 NNE 6 8 1013.7 - - - - - - - - -
22/03:00pm 21.9 NE 5 9 1013.8 - - - - - - - - -
22/02:30pm 22.2 NE 5 9 1013.9 - - - - - - - - -
22/02:00pm 21.6 ENE 7 8 1014.1 - - - - - - - - -
22/01:30pm 21.4 ENE 7 9 1014.5 - - - - - - - - -
22/01:00pm 21.7 NE 8 9 1014.8 - - - - - - - - -
22/12:30pm 22.1 ENE 7 11 1015.3 - - - - - - - - -

Other Formats:

Comma delimited format used in spreadsheet applications
http://www.bom.gov.au/fwo/IDQ60701/IDQ60701.95298.axf

JavaScript Object Notation format (JSON) in row-major order
http://www.bom.gov.au/fwo/IDQ60701/IDQ60701.95298.json